Time;durP1;ratioP1;P1;durP2;ratioP2;P2;SDS_P1;SDS_P2;PMS_P1;PMS_P2;Temp;Humidity;BMP_temperature;BMP_pressure;BME280_temperature;BME280_humidity;BME280_pressure;Samples;Min_cycle;Max_cycle;Signal;HPM_P1;HPM_P2
2022/11/07 00:02:17;;;;;;;3.25;1.80;;;;;;;7.86;100.00;98623.78;5032691;28;20053;-76
2022/11/07 00:04:43;;;;;;;3.85;1.90;;;;;;;7.79;100.00;98617.50;5037417;28;20034;-76
2022/11/07 00:07:08;;;;;;;3.67;2.03;;;;;;;7.88;100.00;98624.41;5023788;28;20105;-77
2022/11/07 00:09:34;;;;;;;5.40;1.98;;;;;;;7.99;100.00;98632.00;5026742;28;20488;-76
2022/11/07 00:11:59;;;;;;;3.40;2.00;;;;;;;8.11;100.00;98633.16;5036020;28;20025;-76
2022/11/07 00:14:24;;;;;;;3.40;2.10;;;;;;;8.08;100.00;98630.03;5028744;28;20036;-76
2022/11/07 00:16:50;;;;;;;5.03;2.20;;;;;;;8.09;100.00;98640.59;5033579;28;20017;-77
2022/11/07 00:19:19;;;;;;;4.13;2.10;;;;;;;7.95;100.00;98630.72;5010951;28;20112;-77
2022/11/07 00:21:44;;;;;;;4.35;2.20;;;;;;;7.94;100.00;98625.50;5030032;28;20032;-77
2022/11/07 00:24:11;;;;;;;5.15;2.17;;;;;;;7.94;100.00;98653.31;5013648;28;20120;-76
2022/11/07 00:26:36;;;;;;;3.90;2.33;;;;;;;7.84;100.00;98653.59;5015110;28;20063;-77
2022/11/07 00:29:03;;;;;;;4.30;2.35;;;;;;;7.86;100.00;98656.94;5035477;28;20099;-76
2022/11/07 00:31:28;;;;;;;4.82;2.75;;;;;;;7.86;100.00;98656.94;5038272;28;20475;-76
2022/11/07 00:33:55;;;;;;;6.30;3.28;;;;;;;7.87;100.00;98663.97;5013977;28;20057;-76
2022/11/07 00:36:23;;;;;;;4.15;2.22;;;;;;;7.99;100.00;98669.72;5030988;28;20026;-77
2022/11/07 00:38:48;;;;;;;3.95;2.08;;;;;;;8.02;100.00;98666.66;5027612;28;20018;-76
2022/11/07 00:41:15;;;;;;;5.68;2.40;;;;;;;8.05;100.00;98671.66;5031239;28;20414;-78
2022/11/07 00:43:40;;;;;;;6.68;2.63;;;;;;;8.05;100.00;98681.59;5015748;28;20040;-76
2022/11/07 00:46:07;;;;;;;4.38;2.60;;;;;;;8.05;100.00;98681.59;5040869;28;20390;-77
2022/11/07 00:48:33;;;;;;;4.55;2.47;;;;;;;8.10;100.00;98679.16;5027955;28;20021;-77
2022/11/07 00:51:06;;;;;;;5.03;2.42;;;;;;;8.17;100.00;98687.31;5044273;28;20102;-77
2022/11/07 00:53:31;;;;;;;4.80;2.40;;;;;;;8.29;100.00;98672.31;5023937;28;20075;-76
2022/11/07 00:56:06;;;;;;;4.70;1.95;;;;;;;8.58;100.00;98681.34;5029934;28;20061;-76
2022/11/07 00:58:31;;;;;;;4.38;2.05;;;;;;;8.67;100.00;98686.41;5015675;28;20029;-77
2022/11/07 01:00:58;;;;;;;5.03;1.70;;;;;;;8.75;100.00;98682.72;5033099;28;20026;-76
2022/11/07 01:06:08;;;;;;;4.07;2.08;;;;;;;8.83;100.00;98668.25;5031028;28;20035;-77
2022/11/07 01:08:34;;;;;;;4.10;1.83;;;;;;;8.78;100.00;98682.34;5032019;28;20060;-77
2022/11/07 01:11:04;;;;;;;2.70;1.55;;;;;;;8.80;100.00;98682.97;5032801;28;20033;-76
2022/11/07 01:13:29;;;;;;;4.43;1.40;;;;;;;8.69;100.00;98661.94;5033704;28;20116;-76
2022/11/07 01:15:55;;;;;;;5.55;1.77;;;;;;;8.72;100.00;98672.31;5032572;28;20104;-76
2022/11/07 01:18:20;;;;;;;3.05;1.30;;;;;;;8.75;100.00;98677.31;5043206;28;20097;-77
2022/11/07 01:20:46;;;;;;;3.97;1.38;;;;;;;8.69;100.00;98672.72;5019732;28;20022;-76
2022/11/07 01:23:11;;;;;;;2.22;1.20;;;;;;;8.63;100.00;98662.72;5014661;28;20483;-76
2022/11/07 01:25:38;;;;;;;1.88;1.15;;;;;;;8.78;100.00;98679.66;5021670;28;20490;-76
2022/11/07 01:28:05;;;;;;;1.80;1.20;;;;;;;8.79;100.00;98684.00;5018723;28;20021;-76
2022/11/07 01:30:30;;;;;;;6.05;1.17;;;;;;;8.80;100.00;98679.44;5023819;28;20022;-76
2022/11/07 01:32:56;;;;;;;2.15;1.42;;;;;;;8.78;100.00;98674.25;5015098;28;20024;-76
2022/11/07 01:35:21;;;;;;;4.45;1.15;;;;;;;8.68;100.00;98658.41;5013723;28;20033;-76
2022/11/07 01:37:46;;;;;;;2.03;1.23;;;;;;;8.57;100.00;98653.53;5031967;28;20022;-76
2022/11/07 01:40:12;;;;;;;2.17;1.25;;;;;;;8.46;100.00;98668.38;5031761;28;20083;-76
2022/11/07 01:42:37;;;;;;;1.48;1.20;;;;;;;8.43;100.00;98670.59;5033773;28;20088;-76
2022/11/07 01:45:03;;;;;;;2.05;1.33;;;;;;;8.34;100.00;98669.88;5021811;28;20013;-76
2022/11/07 01:47:35;;;;;;;3.20;1.27;;;;;;;8.35;100.00;98676.94;5043357;28;20052;-77
2022/11/07 01:50:01;;;;;;;2.47;1.40;;;;;;;8.22;100.00;98674.09;5000761;28;20021;-76
2022/11/07 01:52:34;;;;;;;2.13;1.35;;;;;;;8.31;100.00;98681.88;5052546;28;20021;-77
2022/11/07 01:55:06;;;;;;;2.00;1.15;;;;;;;8.35;100.00;98691.22;5035615;28;20109;-76
2022/11/07 01:57:51;;;;;;;1.45;1.15;;;;;;;8.41;100.00;98678.91;5033391;28;20037;-77
2022/11/07 02:00:20;;;;;;;2.55;1.30;;;;;;;8.54;100.00;98687.13;5032659;28;20372;-77
2022/11/07 02:02:47;;;;;;;;;;;;;;;8.75;100.00;98683.56;5012258;28;20036;-77
2022/11/07 02:05:27;;;;;;;4.35;1.05;;;;;;;8.90;100.00;98677.25;5039543;28;19909;-76
2022/11/07 02:07:53;;;;;;;1.25;1.10;;;;;;;8.90;100.00;98651.09;5032962;28;20021;-76
2022/11/07 02:10:19;;;;;;;1.98;1.10;;;;;;;9.09;100.00;98671.16;5038700;28;20044;-77
2022/11/07 02:12:45;;;;;;;2.17;0.80;;;;;;;9.25;100.00;98677.28;5037666;28;20034;-76
2022/11/07 02:15:10;;;;;;;2.05;0.98;;;;;;;9.32;100.00;98681.69;5052353;28;20045;-76
2022/11/07 02:17:36;;;;;;;2.90;0.82;;;;;;;9.32;100.00;98672.75;5040236;28;20049;-77
2022/11/07 02:20:01;;;;;;;4.35;1.05;;;;;;;9.20;100.00;98657.13;5047109;28;20034;-76
2022/11/07 02:22:47;;;;;;;5.70;1.00;;;;;;;9.06;100.00;98663.44;5045837;28;20096;-77
2022/11/07 02:25:14;;;;;;;1.27;0.77;;;;;;;9.01;100.00;98665.91;5046771;28;20040;-77
2022/11/07 02:27:41;;;;;;;4.00;1.13;;;;;;;8.87;100.00;98658.75;5037695;28;20021;-78
2022/11/07 02:30:11;;;;;;;2.13;1.00;;;;;;;8.95;100.00;98664.00;5049868;28;20088;-77
2022/11/07 02:32:37;;;;;;;1.85;0.90;;;;;;;8.84;100.00;98672.63;5035584;28;20056;-78
2022/11/07 02:35:24;;;;;;;1.27;0.90;;;;;;;8.89;100.00;98683.69;5053788;28;20029;-77
2022/11/07 02:37:50;;;;;;;1.20;0.80;;;;;;;9.02;100.00;98669.47;5038173;28;20068;-77
2022/11/07 02:40:15;;;;;;;1.50;1.00;;;;;;;8.99;100.00;98673.38;5038482;28;20025;-77
2022/11/07 02:42:43;;;;;;;2.58;0.75;;;;;;;8.94;100.00;98673.13;5035252;28;20040;-77
2022/11/07 02:45:09;;;;;;;3.30;1.13;;;;;;;9.02;100.00;98664.88;5038820;28;20006;-77
2022/11/07 02:47:34;;;;;;;2.25;1.13;;;;;;;9.00;100.00;98662.38;5049824;28;20052;-77
2022/11/07 02:49:59;;;;;;;4.28;1.30;;;;;;;9.12;100.00;98659.97;5049616;28;20033;-77
2022/11/07 02:52:25;;;;;;;3.38;1.30;;;;;;;9.16;100.00;98660.41;5029932;28;20029;-77
2022/11/07 02:54:50;;;;;;;8.82;3.08;;;;;;;9.10;100.00;98653.09;5098935;22;20044;-73
2022/11/07 02:57:15;;;;;;;9.82;3.85;;;;;;;9.11;100.00;98663.69;5097282;28;20031;-73
2022/11/07 02:59:41;;;;;;;10.50;4.00;;;;;;;9.10;100.00;98653.09;5090040;28;20035;-73
2022/11/07 03:02:06;;;;;;;4.93;2.47;;;;;;;9.10;100.00;98672.00;5085538;28;20024;-74
2022/11/07 03:04:31;;;;;;;7.40;2.65;;;;;;;9.09;100.00;98673.88;5086481;28;20039;-73
2022/11/07 03:06:56;;;;;;;7.47;2.38;;;;;;;9.17;100.00;98681.81;5083514;28;20027;-73
2022/11/07 03:09:22;;;;;;;1.50;0.90;;;;;;;9.27;100.00;98677.91;5086707;28;20017;-73
2022/11/07 03:11:47;;;;;;;2.47;1.00;;;;;;;9.06;100.00;98647.25;5086317;28;20024;-73
2022/11/07 03:14:12;;;;;;;1.73;0.65;;;;;;;9.30;100.00;98680.22;5081287;28;20107;-73
2022/11/07 03:16:38;;;;;;;1.65;0.90;;;;;;;9.12;100.00;98645.66;5080842;28;20020;-73
2022/11/07 03:19:03;;;;;;;4.55;1.67;;;;;;;9.20;100.00;98659.00;5079061;28;20566;-73
2022/11/07 03:21:28;;;;;;;2.45;1.05;;;;;;;9.32;100.00;98670.88;5084335;28;20027;-73
2022/11/07 03:23:54;;;;;;;3.28;1.20;;;;;;;9.43;100.00;98675.75;5073624;28;20370;-73
2022/11/07 03:26:19;;;;;;;1.88;0.95;;;;;;;9.28;100.00;98660.69;5073928;28;20033;-73
2022/11/07 03:28:45;;;;;;;2.22;1.05;;;;;;;9.31;100.00;98671.09;5076894;28;20131;-73
2022/11/07 03:31:10;;;;;;;2.05;1.00;;;;;;;9.30;100.00;98667.56;5081193;28;20493;-73
2022/11/07 03:33:36;;;;;;;1.35;0.80;;;;;;;9.44;100.00;98688.19;5083985;28;20050;-73
2022/11/07 03:36:01;;;;;;;2.50;0.77;;;;;;;9.37;100.00;98676.53;5074177;28;20024;-73
2022/11/07 03:38:26;;;;;;;1.75;0.88;;;;;;;9.45;100.00;98694.44;5089665;28;20114;-73
2022/11/07 03:40:52;;;;;;;1.30;0.70;;;;;;;9.50;100.00;98693.84;5083918;28;20063;-73
2022/11/07 03:43:17;;;;;;;3.00;0.80;;;;;;;9.37;100.00;98664.91;5085491;28;20026;-73
2022/11/07 03:45:43;;;;;;;1.45;0.80;;;;;;;9.37;100.00;98670.28;5086742;28;20069;-73
2022/11/07 03:48:08;;;;;;;2.75;0.90;;;;;;;9.35;100.00;98659.72;5085747;28;20501;-72
2022/11/07 03:50:33;;;;;;;2.45;0.90;;;;;;;9.30;100.00;98648.69;5089616;28;20399;-73
2022/11/07 03:52:58;;;;;;;1.83;0.90;;;;;;;9.46;100.00;98684.47;5085183;28;20023;-73
2022/11/07 03:55:24;;;;;;;1.45;0.68;;;;;;;9.47;100.00;98688.84;5081065;28;20422;-73
2022/11/07 03:57:49;;;;;;;2.35;0.80;;;;;;;9.60;100.00;98707.81;5081650;28;20443;-73
2022/11/07 04:00:15;;;;;;;2.92;1.00;;;;;;;9.48;100.00;98693.19;5080301;28;20047;-73
2022/11/07 04:02:41;;;;;;;3.33;0.90;;;;;;;9.59;100.00;98689.97;5082157;28;20032;-73
2022/11/07 04:05:07;;;;;;;2.65;0.70;;;;;;;9.68;100.00;98707.66;5080064;28;20458;-73
2022/11/07 04:07:32;;;;;;;4.10;1.08;;;;;;;9.61;100.00;98686.00;5081653;28;20035;-73
2022/11/07 04:09:58;;;;;;;1.58;0.88;;;;;;;9.82;100.00;98705.84;5081466;28;20024;-73
2022/11/07 04:17:54;;;;;;;1.63;0.82;;;;;;;9.88;100.00;98721.28;5079084;28;20156;-73
2022/11/07 04:20:19;;;;;;;1.50;0.85;;;;;;;9.93;100.00;98718.81;5079882;28;20484;-73
2022/11/07 04:22:45;;;;;;;1.73;0.82;;;;;;;9.82;100.00;98701.28;5087839;28;20031;-73
2022/11/07 04:25:11;;;;;;;5.75;1.48;;;;;;;9.81;100.00;98710.41;5078408;28;20031;-73
2022/11/07 04:27:42;;;;;;;3.28;1.10;;;;;;;9.84;100.00;98718.13;5090265;28;20028;-73
2022/11/07 04:30:22;;;;;;;3.88;0.80;;;;;;;9.80;100.00;98700.66;5075681;28;20028;-73
2022/11/07 04:32:50;;;;;;;1.88;1.10;;;;;;;9.95;100.00;98722.13;5085605;28;20489;-72
2022/11/07 04:35:17;;;;;;;3.33;1.70;;;;;;;9.82;100.00;98717.50;5084606;28;20385;-71
2022/11/07 04:37:43;;;;;;;2.85;1.20;;;;;;;9.86;100.00;98729.56;5077390;28;20032;-73
2022/11/07 04:40:09;;;;;;;5.72;1.25;;;;;;;9.81;100.00;98726.63;5078856;28;20035;-73
2022/11/07 04:42:35;;;;;;;3.30;0.98;;;;;;;9.75;100.00;98732.00;5075653;28;20020;-73
2022/11/07 04:45:00;;;;;;;2.13;0.80;;;;;;;9.68;100.00;98731.97;5077137;28;20154;-72
2022/11/07 04:47:25;;;;;;;1.70;0.90;;;;;;;9.48;100.00;98714.81;5076035;28;20390;-73
2022/11/07 04:49:50;;;;;;;2.50;1.00;;;;;;;9.54;100.00;98741.03;5087644;28;20128;-73
2022/11/07 04:52:16;;;;;;;1.88;1.10;;;;;;;9.32;100.00;98715.94;5077434;28;20035;-73
2022/11/07 04:54:41;;;;;;;2.90;1.23;;;;;;;9.40;100.00;98715.78;5076730;28;20035;-72
2022/11/07 04:57:06;;;;;;;3.25;1.52;;;;;;;9.54;100.00;98719.44;5074268;28;20043;-73
2022/11/07 04:59:32;;;;;;;1.65;1.00;;;;;;;9.55;100.00;98713.00;5073600;28;20043;-73
2022/11/07 05:01:57;;;;;;;1.35;1.10;;;;;;;9.70;100.00;98719.09;5076736;28;20106;-73
2022/11/07 05:04:22;;;;;;;4.57;1.00;;;;;;;9.79;100.00;98738.66;5083879;28;20473;-73
2022/11/07 05:06:48;;;;;;;2.03;0.90;;;;;;;9.76;100.00;98729.09;5077098;28;20016;-73
2022/11/07 05:09:17;;;;;;;1.88;0.65;;;;;;;9.79;100.00;98723.28;5073933;28;20054;-74
2022/11/07 05:11:43;;;;;;;3.92;1.25;;;;;;;9.79;100.00;98719.75;5070733;28;20028;-73
2022/11/07 05:14:09;;;;;;;3.67;1.15;;;;;;;9.78;100.00;98737.00;5080538;28;20629;-73
2022/11/07 05:16:35;;;;;;;3.95;1.30;;;;;;;9.71;100.00;98739.66;5073511;28;20016;-73
2022/11/07 05:19:00;;;;;;;3.53;1.42;;;;;;;9.75;100.00;98735.53;5080122;28;20507;-73
2022/11/07 05:21:25;;;;;;;5.10;1.45;;;;;;;9.84;100.00;98737.03;5085812;28;20035;-70
2022/11/07 05:23:50;;;;;;;2.42;1.02;;;;;;;9.90;100.00;98731.88;5084010;28;20030;-74
2022/11/07 05:26:16;;;;;;;4.18;1.38;;;;;;;9.89;100.00;98731.03;5082218;28;20465;-73
2022/11/07 05:28:42;;;;;;;2.45;1.25;;;;;;;9.93;100.00;98729.63;5079933;28;20530;-76
2022/11/07 05:31:12;;;;;;;3.80;1.40;;;;;;;9.95;100.00;98741.03;5085255;28;20028;-73
2022/11/07 05:33:37;;;;;;;1.77;0.90;;;;;;;9.78;100.00;98728.91;5077558;28;20076;-70
2022/11/07 05:36:14;;;;;;;3.65;1.42;;;;;;;9.91;100.00;98747.06;5085721;28;20020;-74
2022/11/07 05:38:48;;;;;;;2.33;0.98;;;;;;;9.78;100.00;98731.63;5076879;28;20489;-75
2022/11/07 05:41:15;;;;;;;3.92;1.20;;;;;;;9.67;100.00;98706.00;5082037;28;20510;-71
2022/11/07 05:43:40;;;;;;;6.35;1.30;;;;;;;9.85;100.00;98748.66;5094721;27;20031;-72
2022/11/07 05:46:07;;;;;;;3.30;1.05;;;;;;;9.80;100.00;98749.28;5079947;28;20032;-71
2022/11/07 05:48:33;;;;;;;1.67;0.98;;;;;;;9.70;100.00;98729.06;5084189;28;20024;-71
2022/11/07 05:50:58;;;;;;;1.70;1.02;;;;;;;9.75;100.00;98754.47;5082041;28;20028;-71
2022/11/07 05:53:24;;;;;;;2.85;1.10;;;;;;;9.80;100.00;98752.00;5082800;28;20611;-71
2022/11/07 05:55:53;;;;;;;2.15;1.05;;;;;;;9.78;100.00;98747.81;5074466;28;20021;-71
2022/11/07 05:58:19;;;;;;;1.83;0.95;;;;;;;9.74;100.00;98747.38;5076132;28;20570;-71
2022/11/07 06:00:45;;;;;;;5.68;1.05;;;;;;;9.75;100.00;98749.06;5075799;28;20186;-72
2022/11/07 06:03:11;;;;;;;4.22;1.10;;;;;;;9.69;100.00;98749.00;5078607;28;20064;-73
2022/11/07 06:05:38;;;;;;;3.40;1.10;;;;;;;9.43;100.00;98723.50;5082839;28;20046;-73
2022/11/07 06:08:04;;;;;;;3.58;1.33;;;;;;;9.40;100.00;98734.69;5079163;28;20021;-72
2022/11/07 06:10:30;;;;;;;5.60;1.70;;;;;;;9.25;100.00;98721.31;5087504;28;20028;-72
2022/11/07 06:13:00;;;;;;;6.28;1.33;;;;;;;9.32;100.00;98751.06;5087165;28;20042;-71
2022/11/07 06:15:27;;;;;;;2.55;1.30;;;;;;;9.32;100.00;98751.88;5092268;28;20062;-72
2022/11/07 06:17:53;;;;;;;5.28;1.58;;;;;;;9.36;100.00;98757.75;5086074;28;20028;-73
2022/11/07 06:20:18;;;;;;;2.38;1.45;;;;;;;9.32;100.00;98741.06;5083264;28;20501;-72
2022/11/07 06:22:43;;;;;;;2.08;1.13;;;;;;;9.43;100.00;98766.69;5081296;28;20024;-73
2022/11/07 06:25:09;;;;;;;3.47;1.20;;;;;;;9.28;100.00;98747.91;5080255;28;20025;-71
2022/11/07 06:27:34;;;;;;;5.05;1.38;;;;;;;9.45;100.00;98770.03;5090892;28;20074;-72
2022/11/07 06:29:59;;;;;;;3.00;1.00;;;;;;;9.49;100.00;98765.09;5077419;28;20024;-71
2022/11/07 06:32:25;;;;;;;2.28;1.30;;;;;;;9.48;100.00;98758.00;5081363;28;20377;-71
2022/11/07 06:34:50;;;;;;;3.67;1.52;;;;;;;9.57;100.00;98762.25;5082101;28;20477;-71
2022/11/07 06:37:15;;;;;;;4.47;1.73;;;;;;;9.54;100.00;98757.25;5084075;28;20044;-73
2022/11/07 06:39:41;;;;;;;6.45;1.48;;;;;;;9.53;100.00;98750.16;5087402;28;20027;-72
2022/11/07 06:42:06;;;;;;;3.60;1.77;;;;;;;9.48;100.00;98744.50;5085822;28;20034;-70
2022/11/07 06:44:31;;;;;;;4.75;2.03;;;;;;;9.56;100.00;98764.13;5084703;28;20032;-72
2022/11/07 06:46:57;;;;;;;5.45;2.22;;;;;;;9.69;100.00;98779.53;5092454;28;20077;-65
2022/11/07 06:49:22;;;;;;;5.20;2.40;;;;;;;9.61;100.00;98755.41;5084583;28;20036;-70
2022/11/07 06:51:48;;;;;;;7.30;2.60;;;;;;;9.62;100.00;98748.97;5090186;28;20023;-73
2022/11/07 06:54:13;;;;;;;4.28;2.03;;;;;;;9.80;100.00;98779.00;5077651;28;20032;-70
2022/11/07 06:56:38;;;;;;;3.63;1.52;;;;;;;9.88;100.00;98784.25;5083493;28;20016;-66
2022/11/07 06:59:04;;;;;;;4.55;2.15;;;;;;;9.83;100.00;98761.56;5079925;28;20082;-70
2022/11/07 07:01:29;;;;;;;9.27;3.15;;;;;;;10.15;100.00;98781.69;5077170;28;20053;-71
2022/11/07 07:03:55;;;;;;;3.30;1.80;;;;;;;10.20;100.00;98764.88;5084232;28;20027;-71
2022/11/07 07:06:20;;;;;;;3.72;1.58;;;;;;;10.35;100.00;98764.72;5085606;28;20107;-71
2022/11/07 07:08:46;;;;;;;4.63;1.58;;;;;;;10.69;100.00;98788.16;5085957;28;20335;-71
2022/11/07 07:11:14;;;;;;;4.28;1.80;;;;;;;10.92;100.00;98788.59;5085358;28;20381;-70
2022/11/07 07:13:39;;;;;;;4.72;1.63;;;;;;;11.23;100.00;98791.75;5083867;28;20039;-71
2022/11/07 07:16:06;;;;;;;6.25;1.67;;;;;;;11.31;100.00;98781.53;5084512;28;20385;-71
2022/11/07 07:18:31;;;;;;;3.25;1.63;;;;;;;11.54;100.00;98737.75;5082803;28;20035;-70
2022/11/07 07:21:02;;;;;;;3.88;1.55;;;;;;;13.36;100.00;98778.22;5091878;28;20020;-73
2022/11/07 07:23:28;;;;;;;1.83;1.38;;;;;;;14.84;100.00;98771.75;5074347;28;20031;-73
2022/11/07 07:25:53;;;;;;;5.25;1.85;;;;;;;15.59;100.00;98758.59;5083644;28;20012;-70
2022/11/07 07:28:19;;;;;;;2.63;1.48;;;;;;;15.80;100.00;98777.16;5082462;28;20036;-71
2022/11/07 07:30:44;;;;;;;3.83;2.10;;;;;;;15.17;100.00;98783.19;5080775;28;20081;-70
2022/11/07 07:33:09;;;;;;;3.15;1.38;;;;;;;14.87;100.00;98773.19;5076050;28;20044;-71
2022/11/07 07:35:35;;;;;;;3.65;1.48;;;;;;;13.69;100.00;98786.09;5080963;28;20103;-70
2022/11/07 07:38:00;;;;;;;3.53;1.33;;;;;;;13.31;100.00;98802.53;5086949;28;20028;-71
2022/11/07 07:40:25;;;;;;;1.80;0.95;;;;;;;12.88;100.00;98792.34;5083968;28;20467;-70
2022/11/07 07:42:51;;;;;;;6.30;1.50;;;;;;;12.84;100.00;98800.09;5086850;28;20043;-72
2022/11/07 07:45:16;;;;;;;3.03;1.30;;;;;;;12.92;100.00;98797.13;5075866;28;20047;-72
2022/11/07 07:47:42;;;;;;;5.72;1.50;;;;;;;13.19;100.00;98794.22;5082591;28;20024;-71
2022/11/07 07:50:09;;;;;;;6.32;1.40;;;;;;;13.66;100.00;98786.53;5078381;28;20036;-71
2022/11/07 07:52:34;;;;;;;6.55;1.30;;;;;;;14.36;100.00;98790.81;5081979;28;20024;-74
2022/11/07 07:55:00;;;;;;;4.75;1.35;;;;;;;14.60;100.00;98800.78;5078709;28;20489;-70
2022/11/07 07:57:25;;;;;;;6.57;1.52;;;;;;;14.71;100.00;98796.44;5074952;28;20024;-73
2022/11/07 07:59:50;;;;;;;4.85;1.25;;;;;;;14.68;100.00;98775.97;5079903;28;20033;-74
2022/11/07 08:02:16;;;;;;;4.38;1.40;;;;;;;14.54;100.00;98768.19;5083716;28;20350;-70
2022/11/07 08:04:42;;;;;;;4.20;1.45;;;;;;;14.60;100.00;98787.16;5072996;28;20035;-71
2022/11/07 08:07:08;;;;;;;2.92;1.30;;;;;;;15.02;100.00;98800.00;5080930;28;20031;-71
2022/11/07 08:09:35;;;;;;;4.03;1.50;;;;;;;15.27;100.00;98784.31;5079822;28;20020;-73
2022/11/07 08:12:05;;;;;;;6.97;1.63;;;;;;;14.63;100.00;98786.72;5077809;28;20040;-74
2022/11/07 08:14:31;;;;;;;5.35;1.80;;;;;;;14.54;100.00;98809.03;5081795;28;20442;-69
2022/11/07 08:16:57;;;;;;;5.03;1.65;;;;;;;14.08;100.00;98805.78;5083577;28;20032;-72
2022/11/07 08:19:23;;;;;;;4.50;1.40;;;;;;;13.91;100.00;98812.84;5073752;28;20024;-68
2022/11/07 08:21:48;;;;;;;5.65;1.77;;;;;;;13.75;100.00;98817.84;5086937;28;20665;-64
2022/11/07 08:24:14;;;;;;;3.10;1.50;;;;;;;13.50;100.00;98822.44;5084307;28;20024;-71
2022/11/07 08:26:39;;;;;;;6.78;1.48;;;;;;;13.25;100.00;98804.19;5078291;28;20025;-71
2022/11/07 08:29:05;;;;;;;4.00;1.35;;;;;;;13.21;100.00;98822.00;5086454;28;20477;-72
2022/11/07 08:31:30;;;;;;;5.32;1.40;;;;;;;12.89;100.00;98781.28;5088020;28;20111;-72
2022/11/07 08:33:57;;;;;;;3.80;1.27;;;;;;;13.03;100.00;98811.06;5080316;28;20020;-72
2022/11/07 08:36:23;;;;;;;5.00;1.30;;;;;;;13.08;100.00;98824.81;5073110;28;20094;-71
2022/11/07 08:38:48;;;;;;;4.55;1.50;;;;;;;13.01;100.00;98822.13;5074299;28;20035;-72
2022/11/07 08:41:13;;;;;;;5.35;1.55;;;;;;;12.87;100.00;98809.69;5075278;28;20032;-74
2022/11/07 08:43:39;;;;;;;6.07;2.10;;;;;;;12.98;100.00;98808.16;5090044;28;20047;-74
2022/11/07 08:46:04;;;;;;;4.60;1.60;;;;;;;12.76;100.00;98784.06;5089318;28;20025;-75
2022/11/07 08:48:30;;;;;;;9.48;1.45;;;;;;;13.03;100.00;98801.03;5075473;28;20063;-74
2022/11/07 08:50:57;;;;;;;8.00;1.52;;;;;;;13.55;100.00;98814.47;5078016;28;20075;-72
2022/11/07 08:53:24;;;;;;;6.53;2.15;;;;;;;13.78;100.00;98821.97;5069709;28;20028;-74
2022/11/07 08:55:50;;;;;;;4.45;1.38;;;;;;;13.95;100.00;98823.06;5090780;22;20035;-77
2022/11/07 08:58:15;;;;;;;4.15;1.30;;;;;;;14.15;100.00;98816.59;5053382;28;20045;-75
2022/11/07 09:00:41;;;;;;;3.67;1.17;;;;;;;14.04;100.00;98820.88;5045975;28;20025;-74
2022/11/07 09:03:07;;;;;;;7.25;1.20;;;;;;;13.89;100.00;98815.00;5053907;28;20481;-73
2022/11/07 09:05:33;;;;;;;4.13;1.00;;;;;;;14.21;100.00;98824.66;5040849;28;20006;-73
2022/11/07 09:07:59;;;;;;;3.55;1.30;;;;;;;14.30;100.00;98818.91;5049890;28;20095;-74
2022/11/07 09:10:24;;;;;;;4.88;1.83;;;;;;;14.58;100.00;98824.69;5049167;28;20024;-72
2022/11/07 09:12:50;;;;;;;4.97;1.70;;;;;;;14.71;100.00;98822.84;5046553;28;20052;-71
2022/11/07 09:15:16;;;;;;;4.40;1.20;;;;;;;14.65;100.00;98811.00;5051345;28;20026;-74
2022/11/07 09:17:43;;;;;;;4.50;1.70;;;;;;;14.68;100.00;98829.59;5051687;28;20027;-75
2022/11/07 09:20:09;;;;;;;8.82;1.67;;;;;;;14.82;100.00;98822.06;5026450;28;20028;-73
2022/11/07 09:22:35;;;;;;;6.60;1.70;;;;;;;14.86;100.00;98809.66;5054950;28;20414;-77
2022/11/07 09:25:00;;;;;;;5.45;1.70;;;;;;;14.85;100.00;98835.22;5057048;28;20036;-76
2022/11/07 09:27:25;;;;;;;5.10;1.20;;;;;;;14.78;100.00;98807.28;5057987;28;20031;-76
2022/11/07 09:29:50;;;;;;;5.03;1.48;;;;;;;14.78;100.00;98827.16;5053974;28;20025;-76
2022/11/07 09:32:16;;;;;;;7.30;2.10;;;;;;;14.37;100.00;98816.97;5034838;28;20063;-76
2022/11/07 09:34:43;;;;;;;7.82;1.70;;;;;;;14.44;100.00;98826.72;5033247;28;20033;-76
2022/11/07 09:37:09;;;;;;;6.15;1.38;;;;;;;14.43;100.00;98805.97;5033914;28;20025;-74
2022/11/07 09:39:35;;;;;;;7.45;1.25;;;;;;;14.37;100.00;98825.94;5041994;28;20060;-77
2022/11/07 09:42:20;;;;;;;9.32;2.40;;;;;;;14.48;100.00;98836.06;5043539;28;20085;-76
2022/11/07 09:44:54;;;;;;;12.93;2.20;;;;;;;14.42;100.00;98831.56;5047375;28;20022;-74
2022/11/07 09:47:44;;;;;;;7.35;2.17;;;;;;;14.50;100.00;98835.84;5025076;28;20026;-74
2022/11/07 09:50:37;;;;;;;9.82;2.33;;;;;;;14.40;100.00;98843.72;5036701;28;20060;-76
2022/11/07 09:53:06;;;;;;;5.57;1.40;;;;;;;14.54;100.00;98842.56;5023794;28;20032;-76
2022/11/07 09:55:52;;;;;;;6.65;1.45;;;;;;;14.50;100.00;98838.56;5014426;28;20021;-76
2022/11/07 09:58:30;;;;;;;4.45;1.20;;;;;;;14.39;100.00;98825.75;5012590;28;20128;-76
2022/11/07 10:01:00;;;;;;;4.50;1.17;;;;;;;14.46;100.00;98837.34;5030785;28;20068;-74
2022/11/07 10:03:26;;;;;;;5.13;1.42;;;;;;;14.39;100.00;98821.13;5017893;28;20116;-75
2022/11/07 10:05:57;;;;;;;4.45;1.20;;;;;;;14.49;100.00;98831.47;5031456;28;20109;-76
2022/11/07 10:08:28;;;;;;;5.60;1.45;;;;;;;14.40;100.00;98819.22;5024472;28;20084;-75
2022/11/07 10:10:59;;;;;;;5.22;1.23;;;;;;;14.32;100.00;98825.81;5017711;28;20029;-74
2022/11/07 10:13:27;;;;;;;2.88;1.17;;;;;;;14.75;100.00;98822.19;5025390;28;20030;-73
2022/11/07 10:15:59;;;;;;;6.63;1.23;;;;;;;14.78;100.00;98829.88;5009422;28;20026;-75
2022/11/07 10:18:36;;;;;;;5.32;1.35;;;;;;;14.82;100.00;98836.50;5017832;28;20036;-75
2022/11/07 10:21:05;;;;;;;13.93;1.40;;;;;;;14.74;100.00;98836.84;5024146;28;20518;-73
2022/11/07 10:23:53;;;;;;;7.10;1.73;;;;;;;14.94;100.00;98812.06;5022594;28;20038;-75
2022/11/07 10:26:23;;;;;;;2.80;1.10;;;;;;;14.87;100.00;98817.59;5021573;28;20032;-74
2022/11/07 10:29:28;;;;;;;4.60;1.10;;;;;;;14.83;100.00;98827.31;5011625;28;20033;-75
2022/11/07 10:32:03;;;;;;;6.75;1.30;;;;;;;14.83;100.00;98821.03;4949540;28;20027;-74
2022/11/07 10:34:40;;;;;;;5.68;1.10;;;;;;;14.40;100.00;98816.50;5012082;28;20122;-75
2022/11/07 10:37:05;;;;;;;6.15;1.30;;;;;;;14.31;100.00;98807.81;5009207;28;20037;-75
2022/11/07 10:39:30;;;;;;;5.90;1.48;;;;;;;14.31;100.00;98807.81;5011824;28;20029;-74
2022/11/07 10:42:09;;;;;;;4.35;1.30;;;;;;;14.41;100.00;98813.56;5028247;28;20030;-74
2022/11/07 10:44:38;;;;;;;4.07;1.15;;;;;;;14.77;100.00;98819.22;5012436;28;20025;-74
2022/11/07 10:47:23;;;;;;;5.80;1.20;;;;;;;14.86;100.00;98810.50;5017705;28;20065;-75
2022/11/07 10:50:15;;;;;;;5.47;1.15;;;;;;;15.02;100.00;98803.56;5009439;28;20151;-77
2022/11/07 10:52:40;;;;;;;4.57;1.10;;;;;;;15.32;100.00;98798.03;5020260;28;20105;-77
2022/11/07 10:55:12;;;;;;;9.27;1.00;;;;;;;15.45;100.00;98793.44;5022473;28;20125;-75
2022/11/07 10:57:38;;;;;;;8.38;1.35;;;;;;;16.15;100.00;98788.00;5030159;28;20029;-75
2022/11/07 11:00:06;;;;;;;4.55;1.25;;;;;;;16.26;100.00;98780.88;5029484;28;20079;-75
2022/11/07 11:02:48;;;;;;;5.28;1.00;;;;;;;16.36;100.00;98797.47;5049666;28;20036;-75
2022/11/07 11:05:23;;;;;;;4.50;1.17;;;;;;;16.26;100.00;98786.34;5039913;28;20044;-73
2022/11/07 11:07:48;;;;;;;2.50;0.93;;;;;;;16.14;100.00;98800.00;5010917;28;20029;-75
2022/11/07 11:10:23;;;;;;;8.20;1.15;;;;;;;16.31;100.00;98804.72;5038412;28;20458;-74
2022/11/07 11:12:49;;;;;;;7.53;1.10;;;;;;;16.58;100.00;98785.88;5037020;28;20025;-75
2022/11/07 11:15:20;;;;;;;3.53;0.88;;;;;;;16.90;100.00;98789.00;5029612;28;20026;-74
2022/11/07 11:17:58;;;;;;;5.45;1.60;;;;;;;16.95;100.00;98794.56;5024311;28;20026;-75
2022/11/07 11:20:43;;;;;;;6.85;1.27;;;;;;;16.35;100.00;98787.63;5028637;28;20029;-76
2022/11/07 11:23:19;;;;;;;4.35;1.10;;;;;;;16.27;100.00;98790.75;5035167;28;20094;-73
2022/11/07 11:25:47;;;;;;;6.55;1.20;;;;;;;15.97;100.00;98799.91;5029225;28;20079;-72
2022/11/07 11:28:42;;;;;;;5.10;1.33;;;;;;;15.67;100.00;98807.38;5005572;28;20121;-70
2022/11/07 11:31:35;;;;;;;8.40;1.20;;;;;;;15.36;100.00;98795.69;5030377;28;20037;-75
2022/11/07 11:34:20;;;;;;;5.85;0.90;;;;;;;15.98;100.00;98795.25;5029990;28;20044;-74
2022/11/07 11:37:07;;;;;;;3.70;0.98;;;;;;;16.12;100.00;98795.88;5018768;28;20060;-73
2022/11/07 11:40:10;;;;;;;7.07;1.20;;;;;;;16.21;100.00;98799.88;5025386;28;20515;-73
2022/11/07 11:43:21;;;;;;;3.65;0.93;;;;;;;15.89;100.00;98794.81;5020315;28;20111;-74